Aplicació Alertes

Dades de l'estació automàtica Os de Balaguer - el Monestir d'Avellanes

?
?
Resum diari 22:30 TU
Dades diàries de l'estació meteorològica
Temperatura mitjana 2.1 °C
Temperatura màxima 8.0 °C 12:30 TU
Temperatura mínima -3.8 °C 7:01 TU
Humitat relativa mitjana 60%
Precipitació acumulada 0.0 mm
Ratxa màxima del vent (6 m) 14.8 km/h - 206º 13:41 TU
Irradiació solar global 9.1 MJ/m2

El tram horari està expressat en Temps Universal (TU). Cal sumar una hora en horari d'hivern i dues en horari d'estiu per passar a l'hora oficial.

Os de Balaguer - el Monestir d'Avellanes

Metadades estació meteorol´gica
Municipi Os de Balaguer
Comarca Noguera
Altitud 576 m
Data alta 07.07.1995
Estat actual Operativa
Dades de període
Període
TU
TM
°C
TX
°C
TN
°C
HRM
%
PPT
mm
VVM (6 m)
km/h
DVM (6 m)
graus
VVX (6 m)
km/h
RS
W/m2
00:00 - 00:30 0.1 0.2 -0.1 69 0.0 1.8 8 6.1 0
00:30 - 01:00 0.5 0.8 0.0 64 0.0 1.8 23 5.8 0
01:00 - 01:30 0.4 0.5 0.1 57 0.0 2.2 327 4.3 0
01:30 - 02:00 0.3 0.5 0.3 56 0.0 0.7 98 3.6 0
02:00 - 02:30 0.7 1.1 0.2 54 0.0 2.5 349 4.7 0
02:30 - 03:00 0.2 0.3 0.1 58 0.0 3.2 18 5.8 0
03:00 - 03:30 0.0 0.2 -0.4 58 0.0 3.6 15 6.5 0
03:30 - 04:00 -1.0 -0.5 -1.7 62 0.0 2.5 324 7.9 0
04:00 - 04:30 -2.0 -1.7 -2.3 66 0.0 4.0 12 8.3 0
04:30 - 05:00 -1.3 -1.1 -1.7 62 0.0 5.0 44 10.8 0
05:00 - 05:30 -1.7 -1.5 -1.8 63 0.0 5.0 35 10.1 0
05:30 - 06:00 -2.2 -1.8 -2.5 66 0.0 2.9 34 6.8 0
06:00 - 06:30 -2.6 -2.3 -3.3 68 0.0 1.4 103 4.3 0
06:30 - 07:00 -3.5 -3.4 -3.7 73 0.0 1.8 25 4.0 0
07:00 - 07:30 -3.4 -3.0 -3.8 78 0.0 1.8 5 5.4 5
07:30 - 08:00 -2.9 -2.6 -3.2 83 0.0 3.2 116 10.1 41
08:00 - 08:30 -2.2 -1.7 -2.6 87 0.0 2.2 69 6.8 128
08:30 - 09:00 -1.2 -0.7 -1.6 87 0.0 0.7 21 4.0 55
09:00 - 09:30 0.1 1.0 -0.7 82 0.0 1.4 72 4.7 142
09:30 - 10:00 2.0 3.6 1.1 71 0.0 1.4 269 4.3 354
10:00 - 10:30 4.2 5.2 3.7 56 0.0 1.4 221 6.5 406
10:30 - 11:00 5.9 6.6 5.3 49 0.0 4.3 228 10.8 444
11:00 - 11:30 6.9 7.6 6.4 44 0.0 4.3 224 11.5 468
11:30 - 12:00 7.6 7.9 7.3 43 0.0 4.7 223 13.3 476
12:00 - 12:30 7.5 7.9 7.2 47 0.0 4.3 232 12.2 471
12:30 - 13:00 7.5 8.0 7.4 46 0.0 4.7 229 14.0 452
13:00 - 13:30 7.2 7.4 7.0 46 0.0 4.7 222 12.6 419
13:30 - 14:00 7.0 7.0 6.9 46 0.0 5.0 230 14.8 374
14:00 - 14:30 6.9 7.1 6.7 46 0.0 5.4 250 12.6 303
14:30 - 15:00 6.7 6.9 6.6 49 0.0 4.7 254 13.3 253
15:00 - 15:30 6.6 6.7 6.5 48 0.0 5.4 265 13.7 177
15:30 - 16:00 6.0 6.6 5.3 52 0.0 2.9 224 10.1 98
16:00 - 16:30 4.4 5.3 3.7 56 0.0 2.2 204 7.6 12
16:30 - 17:00 3.5 3.8 2.9 60 0.0 3.2 218 7.9 1
17:00 - 17:30 2.6 2.9 2.1 62 0.0 2.5 227 6.1 0
17:30 - 18:00 2.0 2.0 1.8 63 0.0 0.7 177 3.6 0
18:00 - 18:30 1.8 2.0 1.5 64 0.0 0.7 19 3.6 0
18:30 - 19:00 2.0 2.2 1.7 62 0.0 0.7 341 3.2 0
19:00 - 19:30 2.3 3.0 1.8 59 0.0 2.5 2 6.1 0
19:30 - 20:00 3.4 3.6 3.1 54 0.0 3.6 7 8.3 0
20:00 - 20:30 3.2 3.3 3.0 56 0.0 4.0 8 9.7 0
20:30 - 21:00 2.7 3.0 2.3 59 0.0 1.8 206 6.5 0
21:00 - 21:30 2.2 2.9 2.0 61 0.0 1.4 347 4.0 0
21:30 - 22:00 2.3 3.0 1.9 63 0.0 2.9 61 7.2 0
22:00 - 22:30 2.5 3.0 2.0 61 0.0 3.2 4 7.6 0
22:30 - 23:00 2.3 2.7 1.9 62 0.0 1.8 78 5.0 0
23:00 - 23:30 (s/d) (s/d) (s/d) (s/d) (s/d) (s/d) (s/d) (s/d) (s/d)

Les dades en taronja només han passat un control de qualitat automàtic. Resta pendent la seva validació definitiva.